Latest Weather Observations for Gelantipy

IDV60801

Issued at 8:52 pm EST Thursday 30 June 2022 (issued every 10 minutes, with the page automatically refreshed every 10 minutes)

About weather observations | Map of weather stations | Latest weather observations for VIC | Other Formats
Station Details ID: 084142 Name: GELANTIPY Lat: -37.22 Lon: 148.26 Height: 755.0 m
Data from the previous 72 hours. | See also: Recent months at Gelantipy
Date/Time
EST
Temp
°C
App
Temp
°C
Dew
Point
°C
Rel
Hum
%
Delta-T
°C
Wind Press
QNH
hPa
Press
MSL
hPa
Rain since
9am
mm
Dir  Spd
km/h
Gust
km/h
Spd
kts
Gust
kts
30/08:30pm 4.8 2.9 3.1 89 0.7 SE 2 6 1 3 1025.8 1026.7 0.0
30/08:00pm 5.3 3.9 3.3 87 0.9 CALM 0 2 0 1 1025.2 1026.2 0.0
30/07:30pm 5.2 3.8 3.7 90 0.7 CALM 0 6 0 3 1024.9 1025.9 0.0
30/07:00pm 5.4 2.7 3.7 89 0.7 WSW 7 9 4 5 1024.8 1025.7 0.0
30/06:30pm 5.4 3.7 3.9 90 0.7 SSW 2 7 1 4 1024.6 1025.5 0.0
30/06:00pm 5.7 4.3 3.7 87 0.9 CALM 0 0 0 0 1024.5 1025.4 0.0
30/05:30pm 5.8 3.7 4.0 88 0.8 S 4 6 2 3 1024.2 1025.1 0.0
30/05:00pm 6.3 3.8 4.0 85 1.0 NW 6 11 3 6 1024.1 1025.0 0.0
30/04:30pm 6.5 5.1 3.7 82 1.2 CALM 0 0 0 0 1023.8 1024.8 0.0
30/04:00pm 7.1 5.8 4.2 82 1.3 CALM 0 7 0 4 1023.6 1024.5 0.0
30/03:30pm 7.4 4.7 2.9 73 2.0 S 6 7 3 4 1023.6 1024.5 0.0
30/03:00pm 7.7 5.1 3.4 74 1.9 SSW 6 9 3 5 1023.5 1024.4 0.0
30/02:30pm 7.8 5.1 3.5 74 1.9 SSW 7 11 4 6 1023.4 1024.3 0.0
30/02:00pm 7.7 4.6 3.4 74 1.9 SSW 9 11 5 6 1023.5 1024.4 0.0
30/01:30pm 7.7 4.8 4.5 80 1.5 SW 9 13 5 7 1023.7 1024.7 0.0
30/01:00pm 7.8 4.8 4.2 78 1.6 SSW 9 11 5 6 1023.6 1024.5 0.0
30/12:30pm 7.6 5.2 5.1 84 1.2 SSW 7 11 4 6 1023.8 1024.8 0.0
30/12:00pm 7.4 5.0 4.5 82 1.3 SSE 6 7 3 4 1023.8 1024.8 0.0
30/11:30am 7.3 5.1 5.3 87 0.9 WNW 6 13 3 7 1023.9 1024.9 0.0
30/11:00am 7.0 4.5 4.8 86 1.0 NW 7 11 4 6 1023.9 1024.9 0.0
30/10:30am 6.4 4.1 4.7 89 0.8 NE 6 7 3 4 1023.9 1024.9 0.0
30/10:00am 5.8 3.5 4.8 93 0.5 NNW 6 9 3 5 1024.1 1025.0 0.0
30/09:30am 5.3 3.0 4.7 96 0.3 NNE 6 7 3 4 1023.8 1024.8 0.0
30/09:00am 4.9 2.3 4.2 95 0.3 NE 7 9 4 5 1023.5 1024.4 2.0
30/08:30am 4.8 2.2 4.1 95 0.3 NNW 7 9 4 5 1023.4 1024.3 2.0
30/08:00am 4.7 2.6 3.7 93 0.4 NNE 4 7 2 4 1023.1 1024.0 2.0
30/07:30am 4.5 1.4 3.8 95 0.3 NNE 9 11 5 6 1023.0 1023.9 2.0
30/07:00am 4.6 1.1 3.7 94 0.4 N 11 13 6 7 1022.5 1023.4 2.0
30/06:30am 4.7 1.3 4.0 95 0.3 N 11 15 6 8 1022.0 1022.9 2.0
30/06:00am 5.1 1.3 4.1 93 0.4 NNE 13 19 7 10 1021.3 1022.1 2.0
30/05:30am 4.9 0.4 4.3 96 0.3 NNE 17 22 9 12 1020.9 1021.8 2.0
30/05:00am 5.5 2.9 4.2 91 0.6 WNW 7 9 4 5 1021.5 1022.4 1.4
30/04:30am 5.9 2.4 3.7 86 1.0 W 11 17 6 9 1021.4 1022.2 1.0
30/04:00am 6.0 1.4 3.7 85 1.0 WSW 17 26 9 14 1021.3 1022.1 0.8
30/03:30am 6.2 2.4 3.7 84 1.1 W 13 17 7 9 1020.9 1021.8 0.6
30/03:00am 5.7 2.6 3.7 87 0.9 W 9 13 5 7 1020.7 1021.6 0.6
30/02:30am 6.2 2.7 3.7 84 1.1 WNW 11 20 6 11 1020.8 1021.7 0.6
30/02:00am 6.1 3.4 3.8 85 1.0 NW 7 15 4 8 1021.0 1021.9 0.6
30/01:30am 5.6 2.6 1.7 76 1.6 W 7 11 4 6 1020.7 1021.6 0.0
30/01:00am 4.1 2.3 1.5 83 1.1 CALM 0 0 0 0 1020.6 1021.5 0.0
30/12:30am 4.4 1.5 1.4 81 1.2 NNE 6 7 3 4 1020.6 1021.5 0.0
30/12:00am 4.1 1.9 0.8 79 1.3 NE 2 7 1 4 1020.4 1021.3 0.0
 
Date/Time
EST
Temp
°C
App
Temp
°C
Dew
Point
°C
Rel
Hum
%
Delta-T
°C
Wind Press
QNH
hPa
Press
MSL
hPa
Rain since
9am
mm
Dir  Spd
km/h
Gust
km/h
Spd
kts
Gust
kts
29/11:30pm 4.8 1.3 1.1 77 1.5 NNE 9 11 5 6 1020.5 1021.4 0.0
29/11:00pm 3.8 0.9 1.4 84 1.0 NE 6 7 3 4 1020.8 1021.7 0.0
29/10:30pm 4.0 1.8 1.2 82 1.1 NNE 2 9 1 5 1020.4 1021.3 0.0
29/10:00pm 4.4 0.5 1.1 79 1.3 N 11 15 6 8 1020.4 1021.3 0.0
29/09:30pm 3.9 0.7 0.9 81 1.2 ENE 7 9 4 5 1020.2 1021.0 0.0
29/09:00pm 4.8 3.0 1.1 77 1.5 CALM 0 0 0 0 1020.8 1021.7 0.0
29/08:30pm 4.7 3.0 1.7 81 1.2 CALM 0 0 0 0 1020.1 1020.9 0.0
29/08:00pm 5.0 2.2 1.8 80 1.3 N 6 7 3 4 1020.4 1021.3 0.0
29/07:30pm 5.2 1.8 1.7 78 1.5 N 9 11 5 6 1020.4 1021.3 0.0
29/07:00pm 5.4 2.0 1.9 78 1.5 NNE 9 13 5 7 1020.5 1021.4 0.0
29/06:30pm 5.3 1.9 1.6 77 1.5 NE 9 11 5 6 1020.1 1020.9 0.0
29/06:00pm 5.5 1.8 2.3 80 1.4 NNE 11 15 6 8 1020.1 1020.9 0.0
29/05:30pm 5.9 2.5 2.0 76 1.7 N 9 13 5 7 1020.2 1021.0 0.0
29/05:00pm 6.6 3.4 2.9 77 1.6 N 9 15 5 8 1020.1 1020.9 0.0
29/04:30pm 5.8 3.0 3.0 82 1.2 NE 7 9 4 5 1020.3 1021.1 0.0
29/04:00pm 6.7 1.6 3.1 78 1.6 N 19 24 10 13 1020.0 1020.8 0.0
29/03:30pm 6.5 3.0 3.5 81 1.3 N 11 17 6 9 1020.3 1021.1 0.0
29/03:00pm 6.9 3.0 3.2 77 1.6 NE 13 17 7 9 1020.3 1021.1 0.0
29/02:30pm 7.2 3.2 2.9 74 1.9 NNE 13 19 7 10 1020.3 1021.1 0.0
29/02:00pm 7.3 2.5 2.6 72 2.0 NNE 17 22 9 12 1020.2 1021.0 0.0
29/01:30pm 7.1 1.7 2.2 71 2.1 NNE 20 24 11 13 1020.5 1021.4 0.0
29/01:00pm 7.3 3.1 1.6 67 2.4 NE 13 19 7 10 1021.5 1022.4 0.0
29/12:30pm 8.1 4.0 2.1 66 2.6 NE 13 17 7 9 1021.9 1022.8 0.0
29/12:00pm 9.1 5.0 2.4 63 2.9 NNE 13 17 7 9 1022.3 1023.2 0.0
29/11:30am 8.5 4.6 1.4 61 3.0 NE 11 15 6 8 1022.8 1023.7 0.0
29/11:00am 10.7 7.7 2.3 56 3.7 N 7 11 4 6 1023.2 1024.1 0.0
29/10:30am 10.3 6.1 1.4 54 3.9 N 13 20 7 11 1023.6 1024.5 0.0
29/10:00am 7.1 4.0 0.1 61 2.9 WNW 6 7 3 4 1023.8 1024.8 0.0
29/09:30am 7.0 3.0 -2.2 52 3.6 NNE 9 13 5 7 1024.2 1025.1 0.0
29/09:00am 5.8 2.1 -2.5 55 3.1 NE 7 11 4 6 1024.1 1025.0 0.2
29/08:30am 3.9 -0.9 -2.3 64 2.3 NNE 13 15 7 8 1023.9 1024.9 0.2
29/08:00am 3.3 -0.8 -3.1 63 2.3 N 9 11 5 6 1024.1 1025.0 0.2
29/07:30am 2.1 -2.3 -2.6 71 1.7 N 11 13 6 7 1023.7 1024.7 0.2
29/07:00am 3.5 -0.4 -4.4 56 2.8 NE 7 13 4 7 1023.5 1024.4 0.2
29/06:30am 2.8 -0.5 -4.0 61 2.4 NE 4 7 2 4 1023.6 1024.5 0.2
29/06:00am 1.8 -2.3 -2.7 72 1.6 NNE 9 13 5 7 1023.4 1024.3 0.2
29/05:30am 2.3 -2.1 -2.2 72 1.7 NNE 11 15 6 8 1023.3 1024.2 0.2
29/05:00am 2.5 -2.6 -1.8 73 1.6 NNE 15 17 8 9 1023.5 1024.4 0.2
29/04:30am 2.9 -2.5 -1.5 73 1.7 NNE 17 19 9 10 1023.5 1024.4 0.2
29/04:00am 1.9 -2.7 -0.8 82 1.0 NNE 13 19 7 10 1023.3 1024.2 0.2
29/03:30am 2.1 -3.6 -0.6 82 1.0 NNE 19 24 10 13 1023.3 1024.2 0.2
29/03:00am 2.3 -2.6 -0.3 83 1.0 NNE 15 22 8 12 1023.9 1024.9 0.2
29/02:30am 2.4 -2.1 -0.4 82 1.1 N 13 19 7 10 1024.4 1025.3 0.2
29/02:00am 3.3 -1.2 -0.3 77 1.4 NNE 13 17 7 9 1024.7 1025.6 0.2
29/01:30am 2.0 -1.8 -0.6 83 1.0 NNE 9 15 5 8 1024.6 1025.5 0.2
29/01:00am 1.5 -3.8 -0.3 88 0.7 NNE 17 20 9 11 1024.8 1025.7 0.2
29/12:30am 1.5 -1.8 -0.1 89 0.6 NNE 7 13 4 7 1025.1 1026.1 0.2
29/12:00am 2.1 -3.1 0.0 86 0.8 NNE 17 19 9 10 1025.3 1026.3 0.2
 
Date/Time
EST
Temp
°C
App
Temp
°C
Dew
Point
°C
Rel
Hum
%
Delta-T
°C
Wind Press
QNH
hPa
Press
MSL
hPa
Rain since
9am
mm
Dir  Spd
km/h
Gust
km/h
Spd
kts
Gust
kts
28/11:30pm 2.2 -3.3 0.3 87 0.7 NNE 19 20 10 11 1025.7 1026.6 0.2
28/11:00pm 2.0 -2.8 -0.1 86 0.8 NNE 15 19 8 10 1025.9 1026.8 0.2
28/10:30pm 3.0 -2.7 0.7 85 0.9 NNE 20 24 11 13 1025.9 1026.8 0.2
28/10:00pm 2.6 -3.1 0.3 85 0.9 NNE 20 24 11 13 1026.0 1027.0 0.2
28/09:30pm 3.5 -2.1 1.2 85 0.9 NNE 20 24 11 13 1026.2 1027.2 0.2
28/09:00pm 2.8 -2.3 0.7 86 0.8 NNE 17 20 9 11 1026.3 1027.3 0.2
28/08:30pm 3.3 -1.4 1.0 85 0.9 NNE 15 17 8 9 1026.6 1027.6 0.2
28/08:00pm 4.3 -1.1 1.3 81 1.2 NNE 19 24 10 13 1026.4 1027.4 0.2
28/07:30pm 3.7 -1.3 1.1 83 1.1 NNE 17 22 9 12 1026.4 1027.4 0.2
28/07:00pm 3.6 -1.5 0.8 82 1.1 NNE 17 20 9 11 1026.7 1027.7 0.2
28/06:30pm 4.1 -0.6 1.0 80 1.3 NNE 15 20 8 11 1026.7 1027.7 0.2
28/06:00pm 4.0 0.5 1.5 84 1.0 NE 9 13 5 7 1026.7 1027.7 0.2
28/05:30pm 3.8 -0.5 1.2 83 1.1 NNE 13 15 7 8 1026.8 1027.8 0.2
28/05:00pm 4.2 0.0 1.4 82 1.1 NNE 13 17 7 9 1026.8 1027.8 0.2
28/04:30pm 4.2 -0.1 0.9 79 1.3 NNE 13 19 7 10 1027.1 1028.0 0.2
28/04:00pm 5.0 0.9 2.2 82 1.2 NNE 13 17 7 9 1027.3 1028.3 0.2
28/03:30pm 5.9 2.4 3.6 85 1.0 NNE 11 15 6 8 1027.5 1028.5 0.2
28/03:00pm 7.0 3.5 3.4 78 1.6 NNE 11 13 6 7 1027.7 1028.7 0.2
28/02:30pm 8.6 4.6 0.8 58 3.3 NNE 11 15 6 8 1027.6 1028.6 0.2
28/02:00pm 7.9 3.9 2.6 69 2.3 NNE 13 17 7 9 1027.9 1028.9 0.2
28/01:30pm 7.5 3.3 1.8 67 2.4 NNE 13 17 7 9 1028.2 1029.3 0.2
28/01:00pm 6.5 2.7 4.0 84 1.1 NNE 13 15 7 8 1028.4 1029.4 0.2
28/12:30pm 6.1 1.9 3.8 85 1.0 NNE 15 19 8 10 1028.8 1029.8 0.2
28/12:00pm 6.7 3.0 4.2 84 1.1 NNE 13 17 7 9 1029.5 1030.6 0.2
28/11:30am 5.1 1.3 3.8 91 0.6 N 13 19 7 10 1030.0 1031.0 0.2
28/11:00am 4.1 -0.6 2.9 92 0.5 N 17 20 9 11 1030.0 1031.0 0.2
28/10:30am 3.5 -1.8 2.0 90 0.6 NNE 19 22 10 12 1030.1 1031.1 0.2
28/10:00am 1.7 -2.9 1.3 97 0.2 N 15 19 8 10 1030.5 1031.6 0.2
28/09:30am 1.1 -4.4 0.5 96 0.2 NNE 19 22 10 12 1030.4 1031.4 0.2
28/09:00am 0.7 -4.1 0.0 95 0.3 NNE 15 17 8 9 1030.3 1031.3 2.0
28/08:30am -0.2 -4.7 -0.6 97 0.1 NNE 13 17 7 9 1030.3 1031.3 2.0
28/08:00am -0.1 -4.3 -0.9 94 0.3 NNE 11 19 6 10 1030.4 1031.4 2.0
28/07:30am 0.2 -4.3 -0.5 95 0.3 NNE 13 17 7 9 1030.1 1031.1 2.0
28/07:00am -0.3 -4.8 -0.6 98 0.1 NNE 13 15 7 8 1030.1 1031.1 2.0
28/06:30am -0.9 -5.6 -1.5 96 0.2 NNE 13 17 7 9 1029.8 1030.8 2.0
28/06:00am -1.5 -5.8 -1.9 97 0.1 NNE 11 15 6 8 1029.9 1030.9 2.0
28/05:30am -1.2 -4.7 -1.6 97 0.1 NNE 7 11 4 6 1029.8 1030.8 2.0
28/05:00am 0.0 -4.1 -0.3 98 0.1 N 11 13 6 7 1029.5 1030.6 2.0
28/04:30am -0.7 -4.5 -1.0 98 0.1 NNE 9 11 5 6 1029.4 1030.5 2.0
28/04:00am 0.3 -3.5 -0.4 95 0.3 NNE 9 11 5 6 1029.4 1030.5 2.0
28/03:30am -0.9 -4.8 -1.3 97 0.1 NNE 9 11 5 6 1029.5 1030.6 2.0
28/03:00am -0.4 -4.2 -1.0 96 0.2 NNE 9 11 5 6 1029.8 1030.8 2.0
28/02:30am -0.5 -4.3 -0.6 99 0.0 NNE 9 11 5 6 1029.9 1030.9 2.0
28/02:00am 0.3 -2.8 0.2 99 0.0 N 6 6 3 3 1029.9 1030.9 2.0
28/01:30am 0.8 -2.4 0.7 99 0.0 NNE 7 9 4 5 1030.1 1031.1 2.0
28/01:00am 0.2 -3.0 -0.2 97 0.1 WNW 6 9 3 5 1030.0 1031.0 2.0
28/12:30am 1.3 -0.6 0.6 95 0.3 CALM 0 0 0 0 1030.1 1031.1 2.0
28/12:00am 2.3 -0.5 2.0 98 0.1 NNW 6 9 3 5 1030.6 1031.7 2.0
 
Date/Time
EST
Temp
°C
App
Temp
°C
Dew
Point
°C
Rel
Hum
%
Delta-T
°C
Wind Press
QNH
hPa
Press
MSL
hPa
Rain since
9am
mm
Dir  Spd
km/h
Gust
km/h
Spd
kts
Gust
kts
27/11:30pm 2.2 -0.7 1.6 96 0.2 NNW 6 7 3 4 1031.0 1032.1 2.0
27/11:00pm 2.8 -0.5 2.2 96 0.2 W 9 11 5 6 1031.4 1032.4 2.0
27/10:30pm 3.1 -0.9 2.7 97 0.2 WSW 13 17 7 9 1031.5 1032.5 2.0
27/10:00pm 3.4 -0.9 3.0 97 0.2 WSW 15 19 8 10 1031.3 1032.3 2.0
27/09:30pm 3.4 0.2 3.1 98 0.1 SW 9 17 5 9 1031.2 1032.2 2.0
27/09:00pm 3.4 -0.5 3.3 99 0.0 SW 13 19 7 10 1031.2 1032.2 2.0

Other formats

Comma delimited format used in spreadsheet applications
http://www.bom.gov.au/fwo/IDV60801/IDV60801.94913.axf

JavaScript Object Notation format (JSON) in row-major order
http://www.bom.gov.au/fwo/IDV60801/IDV60801.94913.json

Data quality

Most of these data are generated automatically and are frequently updated. Quality checks on data are not normally performed. It is possible for incorrect values to appear. Refer to information at About Latest Weather Observations and please check the disclaimer before using these data.